Time;durP1;ratioP1;P1;durP2;ratioP2;P2;SDS_P1;SDS_P2;PMS_P1;PMS_P2;Temp;Humidity;BMP_temperature;BMP_pressure;BME280_temperature;BME280_humidity;BME280_pressure;Samples;Min_cycle;Max_cycle;Signal;HPM_P1;HPM_P2
2021/12/29 00:01:24;;;;;;;6.40;2.75;;;;;;;15.21;60.63;96059.03;5090883;28;20024;-35
2021/12/29 00:03:50;;;;;;;4.60;2.88;;;;;;;15.27;60.66;96054.44;5090963;28;20052;-34
2021/12/29 00:06:16;;;;;;;7.75;3.13;;;;;;;15.20;60.82;96046.63;5090665;28;20150;-34
2021/12/29 00:08:41;;;;;;;4.93;2.60;;;;;;;15.24;60.75;96058.09;5090618;28;20513;-34
2021/12/29 00:11:07;;;;;;;4.55;2.80;;;;;;;15.27;60.81;96065.38;5089422;28;20063;-34
2021/12/29 00:13:33;;;;;;;4.97;2.67;;;;;;;15.25;60.67;96067.81;5094326;28;20054;-34
2021/12/29 00:16:00;;;;;;;5.88;2.75;;;;;;;15.24;60.77;96088.16;5094776;28;20445;-33
2021/12/29 00:18:27;;;;;;;5.07;2.80;;;;;;;15.21;60.74;96072.69;5094884;28;20020;-33
2021/12/29 00:20:53;;;;;;;5.78;2.70;;;;;;;15.24;60.69;96066.31;5094545;28;20043;-33
2021/12/29 00:23:18;;;;;;;5.32;2.42;;;;;;;15.26;60.74;96072.06;5095946;28;20039;-34
2021/12/29 00:25:44;;;;;;;5.45;2.53;;;;;;;15.24;60.80;96060.84;5096894;28;20454;-34
2021/12/29 00:28:09;;;;;;;5.55;2.35;;;;;;;15.24;60.70;96062.81;5096727;28;20047;-34
2021/12/29 00:30:35;;;;;;;3.90;2.58;;;;;;;15.22;60.86;96071.47;5096523;28;20020;-33
2021/12/29 00:33:00;;;;;;;5.70;2.38;;;;;;;15.19;60.91;96069.69;5096455;28;20024;-34
2021/12/29 00:35:27;;;;;;;4.50;2.25;;;;;;;15.21;60.98;96069.97;5095146;28;20476;-34
2021/12/29 00:37:53;;;;;;;3.38;2.20;;;;;;;15.22;60.91;96071.47;5096404;28;20103;-33
2021/12/29 00:40:18;;;;;;;3.65;2.10;;;;;;;15.24;60.68;96063.56;5096416;28;20063;-33
2021/12/29 00:42:44;;;;;;;3.65;2.00;;;;;;;15.21;60.90;96050.84;5096229;28;20378;-34
2021/12/29 00:45:10;;;;;;;4.50;2.35;;;;;;;15.22;60.89;96057.81;5096236;28;20024;-34
2021/12/29 00:47:37;;;;;;;4.65;1.98;;;;;;;15.29;60.42;96062.19;5096078;28;20081;-34
2021/12/29 00:50:06;;;;;;;4.18;2.00;;;;;;;15.26;60.56;96068.56;5096110;28;20559;-34
2021/12/29 00:52:32;;;;;;;3.25;2.00;;;;;;;15.30;60.79;96058.22;5096203;28;20054;-33
2021/12/29 00:54:59;;;;;;;3.80;2.15;;;;;;;15.26;60.66;96050.22;5096030;28;20051;-33
2021/12/29 00:57:24;;;;;;;3.13;1.92;;;;;;;15.26;60.66;96058.41;5096207;28;20027;-34
2021/12/29 00:59:50;;;;;;;3.85;2.00;;;;;;;15.26;60.81;96052.19;5096275;28;20073;-33
2021/12/29 01:02:16;;;;;;;4.18;2.20;;;;;;;15.24;60.74;96052.66;5095893;28;20028;-35
2021/12/29 01:04:41;;;;;;;4.05;2.15;;;;;;;15.25;60.84;96056.13;5095881;28;20117;-34
2021/12/29 01:07:07;;;;;;;3.58;2.10;;;;;;;15.22;60.86;96065.25;5095856;28;20484;-33
2021/12/29 01:09:32;;;;;;;3.53;1.80;;;;;;;15.21;60.87;96064.50;5095912;28;20024;-34
2021/12/29 01:11:59;;;;;;;3.60;2.10;;;;;;;15.22;60.92;96063.28;5095827;28;20405;-33
2021/12/29 01:14:26;;;;;;;6.47;2.75;;;;;;;15.23;60.90;96069.50;5095949;28;20020;-34
2021/12/29 01:16:53;;;;;;;3.95;2.20;;;;;;;15.18;60.99;96061.97;5095652;28;20051;-34
2021/12/29 01:19:24;;;;;;;4.13;2.40;;;;;;;15.18;61.11;96072.88;5095656;28;20020;-34
2021/12/29 01:21:53;;;;;;;4.03;2.40;;;;;;;15.18;61.18;96072.88;5095675;28;20024;-34
2021/12/29 01:24:21;;;;;;;4.68;2.88;;;;;;;15.12;61.02;96091.88;5095290;28;20110;-33
2021/12/29 01:26:47;;;;;;;6.05;3.42;;;;;;;15.20;61.04;96087.59;5095531;28;20020;-33
2021/12/29 01:29:14;;;;;;;5.68;3.03;;;;;;;15.18;61.21;96089.28;5095329;28;20030;-34
2021/12/29 01:31:40;;;;;;;6.40;3.50;;;;;;;15.17;61.16;96093.22;5095456;28;20145;-34
2021/12/29 01:34:06;;;;;;;3.58;2.75;;;;;;;15.15;61.25;96080.03;5095281;28;20073;-34
2021/12/29 01:36:34;;;;;;;5.13;3.60;;;;;;;15.18;60.93;96084.56;5095225;28;20024;-34
2021/12/29 01:39:02;;;;;;;5.95;3.65;;;;;;;15.22;61.27;96085.13;5095475;28;20028;-34
2021/12/29 01:41:27;;;;;;;4.95;3.65;;;;;;;15.18;61.19;96079.09;5095325;28;20027;-34
2021/12/29 01:43:53;;;;;;;4.35;3.15;;;;;;;15.20;61.26;96081.38;5095120;28;20444;-33
2021/12/29 01:46:20;;;;;;;5.30;3.65;;;;;;;15.16;61.09;96081.53;5095101;28;20107;-34
2021/12/29 01:48:45;;;;;;;4.15;2.95;;;;;;;15.08;61.42;96080.38;5095217;28;20111;-34
2021/12/29 01:51:12;;;;;;;5.10;3.25;;;;;;;15.12;61.50;96088.38;5094899;28;20126;-34
2021/12/29 01:53:47;;;;;;;4.15;3.25;;;;;;;15.14;61.32;96078.50;5094843;28;20073;-34
2021/12/29 01:56:12;;;;;;;5.07;3.00;;;;;;;15.17;61.24;96074.84;5095091;28;20033;-34
2021/12/29 01:58:39;;;;;;;3.95;3.10;;;;;;;15.14;61.30;96077.75;5093558;28;20028;-34
2021/12/29 02:01:05;;;;;;;4.60;3.30;;;;;;;15.13;61.33;96087.91;5094727;28;20019;-34
2021/12/29 02:03:30;;;;;;;5.65;3.58;;;;;;;15.12;61.42;96080.94;5094999;28;20542;-34
2021/12/29 02:05:56;;;;;;;6.00;3.25;;;;;;;15.14;61.32;96081.25;5094683;28;20111;-33
2021/12/29 02:08:23;;;;;;;5.13;3.38;;;;;;;15.12;61.29;96080.94;5094877;28;20489;-34
2021/12/29 02:10:50;;;;;;;4.45;3.10;;;;;;;15.08;61.36;96069.47;5094534;28;20031;-33
2021/12/29 02:13:15;;;;;;;5.18;3.40;;;;;;;15.19;61.20;96077.88;5094605;28;20020;-34
2021/12/29 02:15:41;;;;;;;4.97;3.30;;;;;;;15.12;61.58;96075.47;5094585;28;20451;-33
2021/12/29 02:18:14;;;;;;;5.35;3.67;;;;;;;15.13;61.33;96071.53;5094730;28;20059;-33
2021/12/29 02:20:46;;;;;;;3.80;2.90;;;;;;;15.15;61.41;96071.06;5094438;28;20024;-34
2021/12/29 02:23:18;;;;;;;5.22;3.72;;;;;;;15.09;61.65;96070.94;5090787;28;20024;-33
2021/12/29 02:25:54;;;;;;;5.63;3.90;;;;;;;15.08;61.53;96069.47;5076196;28;20028;-33
2021/12/29 02:28:26;;;;;;;6.60;3.65;;;;;;;15.09;61.51;96068.22;5094273;28;20496;-33
2021/12/29 02:30:52;;;;;;;5.28;3.63;;;;;;;15.15;61.27;96069.09;5094521;28;20024;-34
2021/12/29 02:33:18;;;;;;;6.70;3.95;;;;;;;15.13;61.45;96065.31;5094246;28;20024;-34
2021/12/29 02:35:45;;;;;;;6.00;4.18;;;;;;;15.07;61.62;96074.16;5093352;28;20056;-33
2021/12/29 02:38:44;;;;;;;6.18;4.28;;;;;;;15.10;61.62;96067.00;5094403;28;20048;-34
2021/12/29 02:41:09;;;;;;;5.97;4.10;;;;;;;15.08;61.78;96070.19;5094039;28;20466;-33
2021/12/29 02:43:38;;;;;;;6.88;3.92;;;;;;;15.03;61.89;96070.09;5094187;28;20050;-33
2021/12/29 02:46:11;;;;;;;7.30;4.40;;;;;;;15.11;61.65;96082.16;5094058;28;20571;-34
2021/12/29 02:48:40;;;;;;;5.13;3.95;;;;;;;15.13;61.40;96082.47;5093862;28;20031;-34
2021/12/29 02:51:08;;;;;;;6.30;4.47;;;;;;;15.08;61.69;96070.19;5093667;28;20052;-33
2021/12/29 02:53:34;;;;;;;6.03;4.38;;;;;;;15.05;61.90;96065.69;5093864;28;20489;-36
2021/12/29 02:55:59;;;;;;;5.45;4.22;;;;;;;15.11;61.77;96068.50;5094024;28;20032;-33
2021/12/29 02:58:25;;;;;;;6.32;4.65;;;;;;;15.11;61.64;96076.69;5092519;28;20024;-33
2021/12/29 03:00:53;;;;;;;6.60;5.28;;;;;;;15.13;61.70;96081.69;5093712;28;20497;-34
2021/12/29 03:03:21;;;;;;;7.38;4.70;;;;;;;15.12;61.62;96083.69;5093378;28;20031;-34
2021/12/29 03:05:48;;;;;;;6.38;4.55;;;;;;;15.08;61.64;96083.13;5093692;28;20119;-33
2021/12/29 03:08:15;;;;;;;8.00;5.03;;;;;;;15.05;61.78;96073.09;5093625;28;20474;-33
2021/12/29 03:10:42;;;;;;;8.50;4.63;;;;;;;15.06;61.54;96085.53;5093629;28;20028;-33
2021/12/29 03:13:08;;;;;;;6.25;4.18;;;;;;;15.08;61.84;96085.84;5092296;28;20032;-33
2021/12/29 03:15:35;;;;;;;6.60;4.28;;;;;;;15.07;61.99;96084.34;5093443;28;20095;-34
2021/12/29 03:18:01;;;;;;;6.55;4.45;;;;;;;15.05;61.99;96081.31;5093591;28;20025;-33
2021/12/29 03:20:27;;;;;;;7.05;4.15;;;;;;;15.08;61.85;96074.91;5093627;28;20023;-34
2021/12/29 03:22:54;;;;;;;8.00;4.68;;;;;;;15.03;62.09;96081.00;5093277;28;20027;-34
2021/12/29 03:25:25;;;;;;;5.00;3.97;;;;;;;15.00;62.19;96081.94;5093501;28;20466;-33
2021/12/29 03:27:58;;;;;;;6.82;4.55;;;;;;;15.07;61.94;96078.88;5093141;28;20111;-34
2021/12/29 03:30:23;;;;;;;7.32;4.35;;;;;;;15.04;62.14;96077.81;5093584;28;20061;-34
2021/12/29 03:32:52;;;;;;;7.90;4.25;;;;;;;15.02;62.14;96074.03;5093267;28;20551;-34
2021/12/29 03:35:18;;;;;;;5.45;4.03;;;;;;;15.02;62.25;96080.25;5093292;28;20032;-33
2021/12/29 03:37:44;;;;;;;7.40;4.40;;;;;;;15.04;62.01;96074.31;5093075;28;20035;-35
2021/12/29 03:40:10;;;;;;;6.60;4.03;;;;;;;15.02;62.16;96076.75;5093170;28;20420;-34
2021/12/29 03:42:36;;;;;;;7.07;3.80;;;;;;;15.05;61.97;96070.38;5092974;28;20085;-34
2021/12/29 03:45:03;;;;;;;6.80;3.97;;;;;;;15.00;62.09;96073.72;5093293;28;20024;-34
2021/12/29 03:47:28;;;;;;;5.20;3.97;;;;;;;14.93;62.42;96074.09;5099775;28;20034;-34
2021/12/29 03:49:54;;;;;;;5.78;4.40;;;;;;;14.97;62.39;96080.13;5099650;28;20385;-34
2021/12/29 03:52:19;;;;;;;7.72;4.10;;;;;;;14.95;62.52;96071.66;5100167;28;20027;-34
2021/12/29 03:54:44;;;;;;;5.72;3.97;;;;;;;14.96;62.32;96062.97;5099770;28;20024;-33
2021/12/29 03:57:10;;;;;;;6.25;3.95;;;;;;;15.00;62.23;96071.00;5099709;28;20069;-34
2021/12/29 03:59:36;;;;;;;7.32;4.15;;;;;;;15.02;62.19;96065.84;5099670;28;20485;-34
2021/12/29 04:02:01;;;;;;;7.40;4.47;;;;;;;14.96;62.41;96075.91;5100253;28;20031;-35
2021/12/29 04:04:27;;;;;;;5.90;3.58;;;;;;;15.02;62.19;96065.84;5099501;28;20103;-33
2021/12/29 04:06:53;;;;;;;7.35;4.10;;;;;;;14.98;62.39;96068.72;5099594;28;20039;-34
2021/12/29 04:09:19;;;;;;;5.50;3.55;;;;;;;15.00;62.35;96063.56;5099673;28;20020;-34
2021/12/29 04:11:50;;;;;;;5.75;3.70;;;;;;;15.02;62.09;96060.38;5099924;28;20028;-33
2021/12/29 04:14:20;;;;;;;5.13;3.72;;;;;;;15.00;62.36;96068.28;5099803;28;20039;-34
2021/12/29 04:16:47;;;;;;;6.65;3.97;;;;;;;14.99;62.50;96055.84;5099485;28;20476;-33
2021/12/29 04:19:14;;;;;;;4.65;3.13;;;;;;;15.02;62.58;96060.38;5099667;28;20024;-34
2021/12/29 04:21:42;;;;;;;5.28;3.30;;;;;;;15.04;62.46;96068.88;5099627;28;20024;-34
2021/12/29 04:24:09;;;;;;;5.70;3.50;;;;;;;14.97;62.46;96063.72;5099533;28;20066;-34
2021/12/29 04:26:37;;;;;;;5.00;3.30;;;;;;;14.96;62.54;96064.97;5099664;28;20491;-34
2021/12/29 04:29:08;;;;;;;5.07;3.28;;;;;;;15.01;62.50;96061.59;5099477;28;20024;-34
2021/12/29 04:31:34;;;;;;;4.60;3.08;;;;;;;14.97;62.54;96052.81;5099533;28;20515;-35
2021/12/29 04:33:59;;;;;;;4.45;3.30;;;;;;;15.00;62.55;96062.81;5099635;28;20028;-33
2021/12/29 04:36:25;;;;;;;4.95;3.28;;;;;;;14.98;62.71;96070.72;5099637;28;20022;-33
2021/12/29 04:38:55;;;;;;;4.38;3.38;;;;;;;14.96;62.63;96067.72;5099408;28;20099;-34
2021/12/29 04:41:21;;;;;;;5.65;3.55;;;;;;;14.94;62.66;96070.91;5099815;28;20026;-33
2021/12/29 04:43:47;;;;;;;7.38;3.70;;;;;;;14.92;63.01;96069.84;5099505;28;20020;-34
2021/12/29 04:46:16;;;;;;;5.28;3.45;;;;;;;14.93;62.92;96058.47;5099185;28;20386;-33
2021/12/29 04:48:49;;;;;;;6.18;3.50;;;;;;;14.89;62.86;96055.13;5098513;28;20423;-33
2021/12/29 04:51:22;;;;;;;;;;;;;;;14.98;62.73;96054.31;5099629;28;20512;-34
2021/12/29 04:53:48;;;;;;;4.85;3.00;;;;;;;14.98;62.39;96073.44;5099315;28;20410;-34
2021/12/29 04:56:15;;;;;;;4.15;3.08;;;;;;;14.94;62.73;96070.13;5099372;28;20402;-34
2021/12/29 04:58:40;;;;;;;4.43;2.80;;;;;;;14.87;63.01;96059.53;5095730;28;20121;-33
2021/12/29 05:01:06;;;;;;;5.05;3.15;;;;;;;14.91;62.90;96060.13;5096103;28;20024;-34
2021/12/29 05:03:31;;;;;;;4.40;3.08;;;;;;;14.95;62.66;96066.94;5095938;28;20024;-34
2021/12/29 05:08:28;;;;;;;4.93;3.30;;;;;;;14.92;62.86;96073.34;5096018;28;20016;-34
2021/12/29 05:11:05;;;;;;;5.03;2.80;;;;;;;15.00;62.54;96071.00;5095792;28;20389;-33
2021/12/29 05:13:33;;;;;;;4.30;3.17;;;;;;;14.97;63.01;96085.56;5095878;28;20039;-34
2021/12/29 05:15:59;;;;;;;4.65;3.00;;;;;;;14.95;63.12;96094.25;5095760;28;20459;-33
2021/12/29 05:18:27;;;;;;;4.82;3.25;;;;;;;14.96;62.84;96086.81;5095698;28;20024;-33
2021/12/29 05:20:54;;;;;;;4.30;2.97;;;;;;;14.90;62.97;96085.94;5095611;28;20144;-33
2021/12/29 05:23:20;;;;;;;4.90;3.40;;;;;;;14.91;63.08;96082.75;5095864;28;20035;-34
2021/12/29 05:25:47;;;;;;;5.03;3.25;;;;;;;14.93;63.09;96085.00;5094205;28;20033;-34
2021/12/29 05:28:12;;;;;;;3.67;3.00;;;;;;;14.88;63.22;96085.63;5095629;28;20027;-34
2021/12/29 05:30:38;;;;;;;3.83;2.97;;;;;;;14.86;63.31;96080.63;5095269;28;20024;-34
2021/12/29 05:33:05;;;;;;;3.85;2.80;;;;;;;14.96;62.97;96084.81;5095496;28;20036;-34
2021/12/29 05:35:31;;;;;;;4.60;3.17;;;;;;;14.93;62.78;96087.75;5094213;28;20450;-34
2021/12/29 05:37:57;;;;;;;4.30;2.63;;;;;;;14.90;63.13;96091.38;5095236;28;20032;-33
2021/12/29 05:40:24;;;;;;;4.85;3.20;;;;;;;14.92;63.02;96094.41;5095256;28;20028;-33
2021/12/29 05:42:50;;;;;;;4.38;3.05;;;;;;;14.94;62.94;96086.53;5095127;28;20039;-34
2021/12/29 05:45:17;;;;;;;5.18;3.00;;;;;;;14.95;62.93;96094.25;5095150;28;20074;-34
2021/12/29 05:47:43;;;;;;;4.95;3.25;;;;;;;14.91;62.98;96088.19;5095084;28;20024;-33
2021/12/29 05:50:11;;;;;;;4.10;3.13;;;;;;;14.89;63.29;96089.88;5094792;28;20056;-33
2021/12/29 05:52:37;;;;;;;7.10;3.55;;;;;;;14.87;63.48;96092.31;5092795;28;20028;-33
2021/12/29 05:55:04;;;;;;;3.85;2.65;;;;;;;14.88;63.27;96094.56;5093102;28;20768;-34
2021/12/29 05:57:30;;;;;;;3.38;2.63;;;;;;;14.89;63.21;96104.28;5091647;28;20116;-33
2021/12/29 05:59:56;;;;;;;4.40;2.72;;;;;;;14.89;63.24;96112.47;5092947;28;20024;-33
2021/12/29 06:02:21;;;;;;;4.78;2.55;;;;;;;14.89;63.27;96119.91;5092830;28;20419;-34
2021/12/29 06:04:47;;;;;;;4.00;2.70;;;;;;;14.89;63.16;96117.94;5092555;28;20172;-33
2021/12/29 06:07:13;;;;;;;5.18;2.92;;;;;;;14.82;63.36;96121.00;5092799;28;20500;-34
2021/12/29 06:09:39;;;;;;;3.92;3.08;;;;;;;14.88;63.35;96110.19;5089942;28;20034;-34
2021/12/29 06:12:05;;;;;;;2.92;2.47;;;;;;;14.90;63.00;96107.78;5090575;28;20016;-34
2021/12/29 06:14:31;;;;;;;5.60;2.88;;;;;;;14.92;63.21;96111.56;5092465;28;20040;-34
2021/12/29 06:16:56;;;;;;;4.60;3.70;;;;;;;14.89;63.44;96101.56;5092472;28;20048;-33
2021/12/29 06:19:22;;;;;;;4.05;3.08;;;;;;;14.82;63.66;96101.13;5092663;28;20038;-34
2021/12/29 06:21:47;;;;;;;5.15;3.60;;;;;;;14.86;63.58;96112.63;5092577;28;20490;-34
2021/12/29 06:24:13;;;;;;;6.07;3.53;;;;;;;14.84;63.65;96109.59;5092458;28;20071;-35
2021/12/29 06:26:38;;;;;;;4.57;3.10;;;;;;;14.87;63.45;96122.34;5092363;28;20031;-34
2021/12/29 06:29:04;;;;;;;6.47;2.75;;;;;;;14.85;63.59;96111.88;5092228;28;20032;-34
2021/12/29 06:31:29;;;;;;;4.85;3.17;;;;;;;14.82;63.82;96115.56;5092324;28;20028;-34
2021/12/29 06:33:55;;;;;;;3.67;3.03;;;;;;;14.85;63.54;96124.75;5092272;28;20031;-34
2021/12/29 06:36:21;;;;;;;6.85;3.33;;;;;;;14.90;63.19;96118.69;5092177;28;20497;-33
2021/12/29 06:38:47;;;;;;;5.00;3.05;;;;;;;14.83;63.61;96124.50;5092171;28;20055;-35
2021/12/29 06:41:12;;;;;;;4.43;2.78;;;;;;;14.88;63.56;96126.59;5091921;28;20020;-41
2021/12/29 06:43:38;;;;;;;3.83;2.80;;;;;;;14.81;63.86;96132.38;5092206;28;20116;-33
2021/12/29 06:46:03;;;;;;;3.47;2.40;;;;;;;14.91;63.38;96134.63;5092016;28;20094;-33
2021/12/29 06:48:29;;;;;;;6.72;2.92;;;;;;;14.86;63.70;96145.41;5092119;28;20496;-33
2021/12/29 06:50:54;;;;;;;4.65;2.60;;;;;;;14.82;63.70;96144.81;5091874;28;20047;-33
2021/12/29 06:53:20;;;;;;;3.42;2.47;;;;;;;14.88;63.58;96145.69;5091713;28;20463;-33
2021/12/29 06:55:45;;;;;;;4.50;2.85;;;;;;;14.83;63.67;96151.81;5091860;28;20027;-34
2021/12/29 06:58:11;;;;;;;5.20;2.70;;;;;;;14.84;63.75;96158.75;5092056;28;20028;-34
2021/12/29 07:00:37;;;;;;;3.67;2.60;;;;;;;14.84;63.81;96158.75;5091709;28;20031;-34
2021/12/29 07:03:04;;;;;;;3.78;2.60;;;;;;;14.87;63.51;96174.22;5091900;28;20076;-33
2021/12/29 07:05:29;;;;;;;3.88;2.38;;;;;;;14.83;63.92;96162.72;5091367;28;20027;-33
2021/12/29 07:07:55;;;;;;;3.33;2.67;;;;;;;14.84;63.71;96156.00;5091672;28;20028;-34
2021/12/29 07:10:21;;;;;;;3.72;2.60;;;;;;;14.81;64.00;96154.22;5089838;28;20371;-33
2021/12/29 07:12:47;;;;;;;2.92;2.63;;;;;;;14.86;63.82;96153.59;5091642;28;20107;-34
2021/12/29 07:15:13;;;;;;;3.85;2.60;;;;;;;14.86;63.66;96153.59;5091330;28;20447;-34
2021/12/29 07:17:39;;;;;;;3.92;2.50;;;;;;;14.82;63.91;96158.47;5091308;28;20063;-33
2021/12/29 07:20:05;;;;;;;5.07;2.65;;;;;;;14.89;63.81;96177.25;5091333;28;20070;-34
2021/12/29 07:22:31;;;;;;;4.97;2.50;;;;;;;14.86;63.64;96168.00;5091276;28;20036;-34
2021/12/29 07:24:56;;;;;;;4.07;2.33;;;;;;;14.83;64.03;96165.44;5091430;28;20024;-33
2021/12/29 07:27:22;;;;;;;5.43;3.30;;;;;;;14.88;63.85;96171.03;5091339;28;20101;-34
2021/12/29 07:29:47;;;;;;;5.70;3.55;;;;;;;14.83;64.03;96173.63;5089623;28;20493;-34
2021/12/29 07:32:13;;;;;;;8.27;4.38;;;;;;;14.80;64.15;96175.31;5091150;28;20031;-34
2021/12/29 07:34:39;;;;;;;9.02;5.30;;;;;;;14.86;63.87;96169.97;5091305;28;20024;-34
2021/12/29 07:37:04;;;;;;;9.55;4.40;;;;;;;14.89;63.81;96182.72;5091387;28;20361;-34
2021/12/29 07:39:30;;;;;;;7.60;4.43;;;;;;;14.81;63.82;96176.06;5089876;28;20081;-34
2021/12/29 07:41:55;;;;;;;8.48;4.22;;;;;;;14.88;63.77;96175.72;5091054;28;20028;-34
2021/12/29 07:44:22;;;;;;;6.50;3.75;;;;;;;14.79;64.24;96181.97;5091145;28;20402;-34
2021/12/29 07:46:52;;;;;;;6.68;3.72;;;;;;;14.82;64.18;96188.50;5091150;28;20051;-34
2021/12/29 07:49:18;;;;;;;5.90;3.55;;;;;;;14.87;64.13;96185.88;5070808;28;20480;-33
2021/12/29 07:51:44;;;;;;;6.25;3.35;;;;;;;14.80;64.15;96196.38;5070304;28;20076;-34
2021/12/29 07:54:10;;;;;;;7.13;3.90;;;;;;;14.88;63.55;96208.50;5070528;28;20078;-34
2021/12/29 07:56:36;;;;;;;5.95;2.92;;;;;;;14.77;64.40;96213.69;5070906;28;20176;-33
2021/12/29 07:59:02;;;;;;;7.20;3.72;;;;;;;14.80;64.35;96207.31;5070715;28;20032;-33
2021/12/29 08:01:27;;;;;;;6.47;3.63;;;;;;;14.88;64.06;96213.94;5071133;28;20078;-34
2021/12/29 08:03:53;;;;;;;5.35;3.20;;;;;;;14.85;64.10;96207.44;5069465;28;20029;-33
2021/12/29 08:06:19;;;;;;;5.90;3.40;;;;;;;14.85;64.10;96209.41;5070720;28;20103;-34
2021/12/29 08:08:45;;;;;;;6.60;3.28;;;;;;;14.86;64.10;96217.13;5070925;28;20101;-34
2021/12/29 08:11:11;;;;;;;4.10;2.90;;;;;;;14.83;64.30;96220.06;5069318;28;20450;-33
2021/12/29 08:13:37;;;;;;;7.25;3.03;;;;;;;14.86;63.90;96216.38;5070769;28;20056;-34
2021/12/29 08:16:03;;;;;;;5.68;3.28;;;;;;;14.79;64.46;96224.91;5071136;28;20938;-34
2021/12/29 08:18:28;;;;;;;6.53;3.28;;;;;;;14.84;64.25;96224.28;5092679;28;20020;-34
2021/12/29 08:20:54;;;;;;;7.05;3.70;;;;;;;14.78;64.24;96226.13;5092984;28;20028;-34
2021/12/29 08:23:19;;;;;;;6.28;3.60;;;;;;;14.81;64.51;96219.75;5092788;28;20436;-33
2021/12/29 08:25:45;;;;;;;7.30;4.07;;;;;;;14.79;64.34;96224.91;5093737;28;20051;-33
2021/12/29 08:28:11;;;;;;;5.55;2.78;;;;;;;14.81;64.26;96227.94;5108237;28;20057;-34
2021/12/29 08:30:36;;;;;;;4.47;3.28;;;;;;;14.79;64.38;96233.09;5112644;28;20035;-34
2021/12/29 08:33:02;;;;;;;6.05;3.70;;;;;;;14.86;64.05;96240.94;5096621;28;20024;-34
2021/12/29 08:35:28;;;;;;;4.93;3.17;;;;;;;14.85;64.33;96247.63;5095422;28;20024;-34
2021/12/29 08:37:55;;;;;;;5.45;3.55;;;;;;;14.81;64.18;96252.50;5108669;28;20020;-33
2021/12/29 08:40:21;;;;;;;5.13;2.58;;;;;;;14.84;64.30;96243.38;5096170;28;20389;-34
2021/12/29 08:42:48;;;;;;;6.20;2.90;;;;;;;14.88;64.20;96239.28;5096277;28;20036;-33
2021/12/29 08:45:15;;;;;;;5.43;2.60;;;;;;;14.87;64.31;96243.22;5097530;28;20051;-34
2021/12/29 08:47:41;;;;;;;7.00;3.30;;;;;;;14.85;64.41;96247.63;5114246;28;20105;-35
2021/12/29 08:50:11;;;;;;;5.78;2.60;;;;;;;14.81;64.15;96252.50;5116938;28;20553;-34
2021/12/29 08:52:37;;;;;;;4.95;2.60;;;;;;;14.89;64.13;96245.50;5116276;28;20044;-34
2021/12/29 08:55:04;;;;;;;7.82;2.45;;;;;;;14.87;64.37;96250.66;5116742;28;20366;-33
2021/12/29 08:57:30;;;;;;;4.63;2.40;;;;;;;14.82;64.68;96264.94;5101339;28;20466;-34
2021/12/29 08:59:55;;;;;;;3.45;2.58;;;;;;;14.88;64.36;96254.91;5095438;28;20099;-34
2021/12/29 09:02:21;;;;;;;4.43;2.30;;;;;;;14.89;63.85;96259.91;5095517;28;20054;-34
2021/12/29 09:04:46;;;;;;;4.70;2.88;;;;;;;14.92;64.06;96264.47;5095637;28;20050;-34
2021/12/29 09:07:12;;;;;;;4.05;2.55;;;;;;;14.90;63.90;96255.97;5095651;28;20023;-33
2021/12/29 09:09:37;;;;;;;4.18;2.30;;;;;;;14.90;63.96;96257.94;5095818;28;20443;-34
2021/12/29 09:12:03;;;;;;;6.20;3.13;;;;;;;14.91;64.43;96268.41;5095822;28;20024;-34
2021/12/29 09:14:29;;;;;;;4.53;2.60;;;;;;;14.90;64.15;96280.53;5095808;28;20047;-33
2021/12/29 09:16:54;;;;;;;5.03;2.08;;;;;;;14.85;64.44;96286.59;5093566;28;20107;-34
2021/12/29 09:19:22;;;;;;;5.20;2.17;;;;;;;14.89;64.50;96281.00;5095641;28;20085;-34
2021/12/29 09:21:52;;;;;;;3.28;2.05;;;;;;;14.92;64.25;96282.81;5095135;28;20034;-34
2021/12/29 09:24:17;;;;;;;4.75;2.40;;;;;;;14.87;64.38;96280.69;5095437;28;20035;-34
2021/12/29 09:26:43;;;;;;;4.70;2.22;;;;;;;14.90;64.22;96279.78;5095697;28;20454;-33
2021/12/29 09:29:08;;;;;;;5.95;3.00;;;;;;;14.88;64.56;96274.03;5095569;28;20020;-33
2021/12/29 09:31:34;;;;;;;6.53;3.05;;;;;;;14.87;64.56;96261.59;5095525;28;20032;-33
2021/12/29 09:33:59;;;;;;;6.07;2.70;;;;;;;14.84;64.81;96274.16;5095060;28;20416;-33
2021/12/29 09:36:25;;;;;;;5.25;3.10;;;;;;;14.92;64.31;96258.25;5095459;28;20397;-34
2021/12/29 09:38:50;;;;;;;6.40;2.88;;;;;;;14.86;64.75;96268.25;5094843;28;20448;-32
2021/12/29 09:41:17;;;;;;;9.63;3.40;;;;;;;14.48;67.53;96263.28;5095062;28;20035;-33
2021/12/29 09:43:45;;;;;;;7.95;3.10;;;;;;;14.62;66.50;96263.44;5094643;28;20028;-32
2021/12/29 09:46:11;;;;;;;8.18;2.97;;;;;;;14.77;65.94;96274.50;5095054;28;20035;-33
2021/12/29 09:48:37;;;;;;;10.02;4.32;;;;;;;14.85;66.03;96281.16;5094645;28;20031;-32
2021/12/29 09:51:05;;;;;;;9.40;3.50;;;;;;;14.95;65.26;96277.22;5094767;28;20040;-32
2021/12/29 09:53:31;;;;;;;8.15;3.20;;;;;;;14.97;64.88;96271.25;5095106;28;20031;-33
2021/12/29 09:55:57;;;;;;;8.25;3.78;;;;;;;14.94;65.01;96286.63;5095123;28;20027;-32
2021/12/29 09:58:22;;;;;;;6.78;3.38;;;;;;;14.94;64.67;96281.16;5094968;28;20024;-32
2021/12/29 10:00:55;;;;;;;8.68;3.92;;;;;;;14.97;64.53;96271.25;5095187;28;20028;-32
2021/12/29 10:03:23;;;;;;;9.95;3.28;;;;;;;15.00;64.42;96282.03;5095074;28;20019;-32
2021/12/29 10:05:51;;;;;;;8.25;3.20;;;;;;;14.77;65.74;96282.69;5094717;28;20032;-32
2021/12/29 10:08:20;;;;;;;7.22;2.60;;;;;;;14.58;66.85;96284.69;5094378;28;20385;-32
2021/12/29 10:10:52;;;;;;;9.95;3.20;;;;;;;14.77;65.43;96284.66;5094697;28;20024;-33
2021/12/29 10:13:17;;;;;;;9.43;3.17;;;;;;;14.79;65.55;96276.78;5094836;28;20024;-32
2021/12/29 10:15:46;;;;;;;6.93;2.85;;;;;;;14.91;65.44;96276.59;5093128;28;20501;-32
2021/12/29 10:18:18;;;;;;;9.93;2.65;;;;;;;14.92;64.64;96283.56;5092480;28;20028;-32
2021/12/29 10:21:09;;;;;;;7.90;2.83;;;;;;;14.97;64.31;96277.47;5093743;28;20107;-32
2021/12/29 10:23:43;;;;;;;6.93;2.67;;;;;;;14.84;65.06;96281.59;5094413;28;20066;-32
2021/12/29 10:26:13;;;;;;;9.25;3.10;;;;;;;14.88;64.63;96279.47;5094356;28;20035;-32
2021/12/29 10:28:47;;;;;;;4.90;2.40;;;;;;;14.89;64.78;96279.03;5094215;28;20070;-32
2021/12/29 10:31:19;;;;;;;4.55;2.33;;;;;;;14.82;66.99;96273.91;5094282;28;20110;-33
2021/12/29 10:33:52;;;;;;;5.57;2.07;;;;;;;14.77;66.58;96266.31;5094525;28;20086;-32
2021/12/29 10:36:19;;;;;;;;;;;;;;;14.84;65.70;96265.22;5094770;28;20015;-32
2021/12/29 10:38:50;;;;;;;4.70;2.35;;;;;;;14.87;65.15;96270.53;5094208;28;19908;-32
2021/12/29 10:41:16;;;;;;;6.45;2.25;;;;;;;14.84;65.93;96267.94;5092851;28;20377;-32
2021/12/29 10:43:51;;;;;;;5.40;2.33;;;;;;;14.87;65.03;96264.31;5093870;28;20020;-32
2021/12/29 10:46:20;;;;;;;5.75;2.50;;;;;;;14.81;65.02;96272.38;5094032;28;20027;-32
2021/12/29 10:48:51;;;;;;;6.07;2.35;;;;;;;14.86;65.04;96262.78;5094108;28;20032;-32
2021/12/29 10:51:20;;;;;;;5.45;2.75;;;;;;;14.90;64.75;96263.41;5093599;28;20055;-32
2021/12/29 10:53:45;;;;;;;6.40;2.30;;;;;;;14.88;64.54;96257.63;5094084;28;20386;-32
2021/12/29 10:56:23;;;;;;;5.95;2.47;;;;;;;14.81;64.99;96263.44;5093362;28;20023;-32
2021/12/29 10:58:52;;;;;;;6.10;2.35;;;;;;;14.99;64.16;96257.91;5093829;28;20024;-32
2021/12/29 11:01:18;;;;;;;4.28;1.80;;;;;;;14.96;64.36;96256.84;5093758;28;20107;-32
2021/12/29 11:03:48;;;;;;;4.57;2.20;;;;;;;14.91;64.51;96256.72;5093628;28;20109;-32
2021/12/29 11:06:17;;;;;;;5.70;2.30;;;;;;;15.00;64.24;96260.19;5093784;28;20041;-32
2021/12/29 11:08:53;;;;;;;5.13;2.47;;;;;;;14.98;64.32;96254.41;5093694;28;20028;-32
2021/12/29 11:11:46;;;;;;;6.25;1.92;;;;;;;15.01;64.32;96271.88;5092225;28;20035;-32
2021/12/29 11:14:16;;;;;;;4.50;1.90;;;;;;;14.97;64.46;96255.63;5090708;28;20032;-32
2021/12/29 11:16:47;;;;;;;6.97;2.15;;;;;;;14.98;64.50;96248.19;5093800;28;20039;-32
2021/12/29 11:19:13;;;;;;;6.32;2.25;;;;;;;14.97;64.33;96246.69;5093439;28;20032;-32
2021/12/29 11:21:42;;;;;;;5.47;1.83;;;;;;;15.04;64.22;96254.56;5093542;28;20024;-32
2021/12/29 11:24:23;;;;;;;7.32;2.10;;;;;;;14.98;64.13;96246.22;5093409;28;20024;-33
2021/12/29 11:26:50;;;;;;;5.03;1.85;;;;;;;15.04;63.93;96236.22;5093395;28;20529;-32
2021/12/29 11:29:19;;;;;;;7.30;2.10;;;;;;;15.06;63.78;96239.25;5093483;28;20028;-32
2021/12/29 11:31:56;;;;;;;6.55;2.00;;;;;;;15.05;63.88;96236.97;5093202;28;20102;-32
2021/12/29 11:34:27;;;;;;;7.68;2.20;;;;;;;15.02;64.04;96235.16;5091925;28;20073;-32
2021/12/29 11:37:19;;;;;;;5.70;1.65;;;;;;;15.04;63.98;96235.47;5093304;28;20047;-32